createdAt,value
2023-03-27T00:00:49.140Z,99834.03
2023-03-27T00:03:15.426Z,99833.34
2023-03-27T00:05:41.591Z,99838.63
2023-03-27T00:08:07.720Z,99845.72
2023-03-27T00:10:33.907Z,99855.38
2023-03-27T00:13:00.047Z,99864.13
2023-03-27T00:15:26.237Z,99866.72
2023-03-27T00:17:52.442Z,99879.66
2023-03-27T00:20:18.596Z,99885.81
2023-03-27T00:22:44.788Z,99900.84
2023-03-27T00:25:10.917Z,99898.78
2023-03-27T00:27:37.152Z,99906.28
2023-03-27T00:30:03.332Z,99924.69
2023-03-27T00:32:29.539Z,99915.69
2023-03-27T00:34:55.712Z,99922.94
2023-03-27T00:37:21.852Z,99921.38
2023-03-27T00:39:48.062Z,99936.22
2023-03-27T00:42:14.208Z,99933.78
2023-03-27T00:44:40.361Z,99949.38
2023-03-27T00:47:06.546Z,99955.53
2023-03-27T00:49:32.715Z,99961.50
2023-03-27T00:51:58.861Z,99963.16
2023-03-27T00:54:24.999Z,99965.75
2023-03-27T00:56:51.241Z,99968.53
2023-03-27T00:59:17.458Z,99973.00
2023-03-27T01:01:43.693Z,99974.91
2023-03-27T01:04:09.942Z,99980.13
2023-03-27T01:06:36.157Z,99979.31
2023-03-27T01:09:02.331Z,99988.09
2023-03-27T01:11:28.544Z,99996.78
2023-03-27T01:13:54.749Z,100003.72
2023-03-27T01:16:20.914Z,100010.50
2023-03-27T01:18:47.127Z,100015.69
2023-03-27T01:21:13.320Z,100022.47
2023-03-27T01:23:58.849Z,100031.00
2023-03-27T01:26:36.354Z,100025.88
2023-03-27T01:29:03.461Z,100031.84
2023-03-27T01:31:29.597Z,100033.63
2023-03-27T01:33:55.839Z,100031.03
2023-03-27T01:36:22.017Z,100034.59
2023-03-27T01:38:48.177Z,100033.84
2023-03-27T01:41:14.318Z,100040.75
2023-03-27T01:43:40.493Z,100005.41
2023-03-27T01:46:06.684Z,100052.78
2023-03-27T01:48:32.862Z,100056.09
2023-03-27T01:50:59.193Z,100059.66
2023-03-27T01:53:25.409Z,100057.91
2023-03-27T01:55:51.531Z,100066.56
2023-03-27T01:58:17.718Z,100073.69
2023-03-27T02:00:52.109Z,100071.16
2023-03-27T02:03:19.572Z,100069.53
2023-03-27T02:05:45.777Z,100085.19
2023-03-27T02:08:11.935Z,100094.81
2023-03-27T02:10:38.078Z,100105.41
2023-03-27T02:13:04.226Z,100108.13
2023-03-27T02:15:30.335Z,100110.72
2023-03-27T02:17:56.528Z,100125.50
2023-03-27T02:20:22.704Z,100125.63
2023-03-27T02:22:48.903Z,100136.09
2023-03-27T02:25:15.116Z,100149.94
2023-03-27T02:27:41.300Z,100153.59
2023-03-27T02:30:07.466Z,100151.94
2023-03-27T02:34:59.865Z,100163.59
2023-03-27T02:37:32.392Z,100170.66
2023-03-27T02:39:59.447Z,100179.44
2023-03-27T02:42:25.604Z,100187.28
2023-03-27T02:44:51.876Z,100197.00
2023-03-27T02:47:18.074Z,100203.25
2023-03-27T02:49:44.255Z,100201.66
2023-03-27T02:52:10.417Z,100211.25
2023-03-27T02:54:36.575Z,100207.06
2023-03-27T02:57:02.713Z,100230.41
2023-03-27T02:59:28.870Z,100235.72
2023-03-27T03:01:55.127Z,100239.25
2023-03-27T03:04:21.448Z,100243.72
2023-03-27T03:06:47.625Z,100237.84
2023-03-27T03:09:13.783Z,100257.97
2023-03-27T03:11:40.009Z,100258.19
2023-03-27T03:14:06.123Z,100262.81
2023-03-27T03:16:32.292Z,100274.22
2023-03-27T03:18:58.460Z,100264.91
2023-03-27T03:21:24.607Z,100286.47
2023-03-27T03:23:57.537Z,100285.66
2023-03-27T03:26:25.390Z,100289.16
2023-03-27T03:29:00.839Z,100309.75
2023-03-27T03:31:27.824Z,100312.38
2023-03-27T03:33:54.158Z,100321.88
2023-03-27T03:36:20.318Z,100330.69
2023-03-27T03:38:46.441Z,100339.31
2023-03-27T03:41:12.707Z,100344.38
2023-03-27T03:43:38.860Z,100351.31
2023-03-27T03:46:05.030Z,100361.56
2023-03-27T03:48:31.175Z,100368.47
2023-03-27T03:50:57.461Z,100381.47
2023-03-27T03:53:23.810Z,100385.78
2023-03-27T03:55:50.810Z,100392.75
2023-03-27T03:58:16.973Z,100397.84
2023-03-27T04:00:43.079Z,100399.59
2023-03-27T04:03:09.404Z,100413.41
2023-03-27T04:05:35.612Z,100414.31
2023-03-27T04:08:01.797Z,100423.66
2023-03-27T04:10:27.995Z,100435.72
2023-03-27T04:12:54.174Z,100440.09
2023-03-27T04:15:20.373Z,100440.06
2023-03-27T04:17:46.623Z,100443.47
2023-03-27T04:20:12.872Z,100440.88
2023-03-27T04:22:39.034Z,100451.16
2023-03-27T04:25:05.191Z,100453.75
2023-03-27T04:27:31.346Z,100459.81
2023-03-27T04:29:57.541Z,100464.16
2023-03-27T04:32:23.721Z,100472.78
2023-03-27T04:34:49.885Z,100477.16
2023-03-27T04:37:16.089Z,100482.19
2023-03-27T04:39:42.250Z,100493.47
2023-03-27T04:42:08.403Z,100489.25
2023-03-27T04:44:34.612Z,100502.91
2023-03-27T04:47:00.882Z,100508.91
2023-03-27T04:49:27.186Z,100497.66
2023-03-27T04:51:53.347Z,100514.84
2023-03-27T04:54:19.465Z,100525.06
2023-03-27T04:56:45.667Z,100526.91
2023-03-27T04:59:11.913Z,100536.38
2023-03-27T05:01:38.154Z,100541.53
2023-03-27T05:04:04.392Z,100541.53
2023-03-27T05:06:30.637Z,100560.50
2023-03-27T05:08:56.783Z,100569.22
2023-03-27T05:11:22.947Z,100570.91
2023-03-27T05:13:49.085Z,100579.47
2023-03-27T05:16:15.280Z,100591.47
2023-03-27T05:18:42.001Z,100595.78
2023-03-27T05:21:08.305Z,100607.84
2023-03-27T05:23:34.733Z,100614.78
2023-03-27T05:26:01.070Z,100613.88
2023-03-27T05:28:27.395Z,100627.59
2023-03-27T05:30:53.633Z,100638.78
2023-03-27T05:33:19.917Z,100637.97
2023-03-27T05:35:46.063Z,100644.00
2023-03-27T05:38:12.356Z,100652.63
2023-03-27T05:40:38.570Z,100650.75
2023-03-27T05:43:04.691Z,100657.59
2023-03-27T05:45:30.906Z,100662.75
2023-03-27T05:47:57.212Z,100664.38
2023-03-27T05:50:23.422Z,100671.25
2023-03-27T05:52:49.597Z,100674.59
2023-03-27T05:55:15.784Z,100681.44
2023-03-27T05:57:41.979Z,100693.47
2023-03-27T06:00:08.167Z,100693.47
2023-03-27T06:02:34.659Z,100709.72
2023-03-27T06:05:00.886Z,100709.69
2023-03-27T06:07:27.046Z,100709.66
2023-03-27T06:09:53.227Z,100712.19
2023-03-27T06:12:19.420Z,100719.00
2023-03-27T06:14:45.607Z,100734.41
2023-03-27T06:17:11.788Z,100734.25
2023-03-27T06:19:38.019Z,100743.69
2023-03-27T06:22:04.224Z,100742.84
2023-03-27T06:24:30.397Z,100757.34
2023-03-27T06:26:56.599Z,100768.41
2023-03-27T06:29:22.778Z,100774.25
2023-03-27T06:31:48.990Z,100777.50
2023-03-27T06:34:15.254Z,100786.72
2023-03-27T06:36:41.481Z,100784.59
2023-03-27T06:39:07.623Z,100787.97
2023-03-27T06:41:33.830Z,100789.56
2023-03-27T06:44:00.015Z,100796.38
2023-03-27T06:46:35.307Z,100796.69
2023-03-27T06:49:09.242Z,100801.75
2023-03-27T06:51:35.425Z,100798.19
2023-03-27T06:54:01.566Z,100800.69
2023-03-27T06:56:27.719Z,100806.81
2023-03-27T06:58:53.876Z,100813.75
2023-03-27T07:01:20.122Z,100824.16
2023-03-27T07:03:46.485Z,100816.66
2023-03-27T07:06:12.665Z,100835.88
2023-03-27T07:08:38.885Z,100845.34
2023-03-27T07:11:11.259Z,100838.25
2023-03-27T07:13:38.168Z,100852.09
2023-03-27T07:16:04.469Z,100850.41
2023-03-27T07:18:30.761Z,100846.41
2023-03-27T07:20:57.189Z,100856.75
2023-03-27T07:23:23.487Z,100853.84
2023-03-27T07:25:49.662Z,100853.50
2023-03-27T07:28:15.837Z,100860.94
2023-03-27T07:30:41.965Z,100869.75
2023-03-27T07:33:08.412Z,100864.19
2023-03-27T07:35:34.768Z,100878.72
2023-03-27T07:38:00.958Z,100883.66
2023-03-27T07:40:37.268Z,100878.75
2023-03-27T07:43:05.444Z,100888.38
2023-03-27T07:45:31.655Z,100887.13
2023-03-27T07:47:57.866Z,100894.84
2023-03-27T07:50:24.126Z,100890.31
2023-03-27T07:52:50.292Z,100894.09
2023-03-27T07:55:16.452Z,100893.44
2023-03-27T07:57:55.410Z,100908.19
2023-03-27T08:00:26.473Z,100905.03
2023-03-27T08:02:52.753Z,100920.72
2023-03-27T08:05:19.103Z,100914.53
2023-03-27T08:07:45.312Z,100922.72
2023-03-27T08:10:11.458Z,100921.94
2023-03-27T08:12:37.603Z,100916.13
2023-03-27T08:15:03.828Z,100917.75
2023-03-27T08:17:30.110Z,100916.38
2023-03-27T08:19:56.340Z,100916.88
2023-03-27T08:22:22.476Z,100928.06
2023-03-27T08:24:48.648Z,100926.22
2023-03-27T08:27:14.802Z,100918.78
2023-03-27T08:29:40.984Z,100917.63
2023-03-27T08:32:10.254Z,100920.47
2023-03-27T08:34:36.463Z,100923.69
2023-03-27T08:37:02.661Z,100916.06
2023-03-27T08:39:28.885Z,100936.47
2023-03-27T08:41:55.061Z,100936.03
2023-03-27T08:44:21.261Z,100943.91
2023-03-27T08:46:47.494Z,100954.25
2023-03-27T08:49:13.683Z,100960.56
2023-03-27T08:51:39.911Z,100967.56
2023-03-27T08:54:06.084Z,100957.97
2023-03-27T08:56:32.203Z,100947.56
2023-03-27T08:58:58.364Z,100947.09
2023-03-27T09:01:24.524Z,100949.69
2023-03-27T09:03:50.810Z,100967.22
2023-03-27T09:06:17.107Z,100969.50
2023-03-27T09:08:43.309Z,100966.56
2023-03-27T09:11:09.442Z,100967.41
2023-03-27T09:13:35.840Z,100935.78
2023-03-27T09:16:02.063Z,100933.69
2023-03-27T09:18:28.266Z,100931.13
2023-03-27T09:20:54.448Z,100935.63
2023-03-27T09:23:21.123Z,100939.50
2023-03-27T09:25:47.439Z,100941.84
2023-03-27T09:28:13.626Z,100929.81
2023-03-27T09:30:39.806Z,100920.75
2023-03-27T09:33:06.051Z,100935.25
2023-03-27T09:35:32.344Z,100946.84
2023-03-27T09:37:58.623Z,100937.38
2023-03-27T09:40:24.869Z,100929.44
2023-03-27T09:42:51.041Z,100924.69
2023-03-27T09:45:17.185Z,100932.88
2023-03-27T09:47:43.393Z,100937.31
2023-03-27T09:50:09.561Z,100954.44
2023-03-27T09:52:35.769Z,100945.94
2023-03-27T09:55:01.987Z,100958.16
2023-03-27T09:57:28.312Z,100973.88
2023-03-27T09:59:54.535Z,100978.38
2023-03-27T10:02:20.679Z,100988.53
2023-03-27T10:04:46.856Z,100983.31
2023-03-27T10:07:13.008Z,100997.22
2023-03-27T10:09:39.189Z,101005.84
2023-03-27T10:12:05.354Z,101013.16
2023-03-27T10:14:31.553Z,101001.59
2023-03-27T10:16:57.772Z,101011.78
2023-03-27T10:19:23.992Z,101005.47
2023-03-27T10:21:50.196Z,101012.06
2023-03-27T10:24:16.400Z,101010.38
2023-03-27T10:26:42.584Z,101030.13
2023-03-27T10:29:08.755Z,101031.66
2023-03-27T10:31:34.972Z,101040.00
2023-03-27T10:34:01.173Z,101038.50
2023-03-27T10:36:27.328Z,101025.75
2023-03-27T10:38:53.498Z,101007.44
2023-03-27T10:41:28.594Z,101000.91
2023-03-27T10:43:55.424Z,100996.84
2023-03-27T10:46:21.774Z,100997.94
2023-03-27T10:48:47.974Z,100995.75
2023-03-27T10:51:14.186Z,100992.06
2023-03-27T10:53:40.403Z,100969.47
2023-03-27T10:56:06.611Z,100962.28
2023-03-27T10:58:32.797Z,100958.50
2023-03-27T11:01:00.306Z,100979.25
2023-03-27T11:03:26.860Z,100980.06
2023-03-27T11:05:53.060Z,100990.66
2023-03-27T11:08:19.203Z,101008.38
2023-03-27T11:10:45.402Z,101000.44
2023-03-27T11:13:11.582Z,100997.91
2023-03-27T11:15:37.791Z,100991.28
2023-03-27T11:18:04.007Z,100997.16
2023-03-27T11:20:30.230Z,101007.09
2023-03-27T11:22:56.399Z,101010.75
2023-03-27T11:25:22.561Z,101011.03
2023-03-27T11:27:48.716Z,101018.63
2023-03-27T11:30:14.854Z,101028.22
2023-03-27T11:32:41.094Z,101036.41
2023-03-27T11:35:07.296Z,101050.75
2023-03-27T11:37:33.450Z,101047.56
2023-03-27T11:39:59.623Z,101051.13
2023-03-27T11:42:25.743Z,101067.13
2023-03-27T11:44:51.934Z,101078.53
2023-03-27T11:47:18.109Z,101090.47
2023-03-27T11:49:44.309Z,101096.06
2023-03-27T11:52:10.498Z,101096.91
2023-03-27T11:54:36.646Z,101084.69
2023-03-27T11:57:02.919Z,101068.31
2023-03-27T11:59:29.118Z,101063.97
2023-03-27T12:01:55.316Z,101041.91
2023-03-27T12:04:21.562Z,101034.69
2023-03-27T12:06:47.794Z,101041.00
2023-03-27T12:09:15.088Z,101047.28
2023-03-27T12:11:41.227Z,101034.69
2023-03-27T12:14:17.555Z,101032.84
2023-03-27T12:16:44.520Z,101040.44
2023-03-27T12:19:21.164Z,101029.81
2023-03-27T12:21:53.500Z,101030.19
2023-03-27T12:24:19.688Z,101023.38
2023-03-27T12:26:45.833Z,101018.84
2023-03-27T12:29:23.056Z,101023.06
2023-03-27T12:31:50.511Z,101034.31
2023-03-27T12:34:16.705Z,101021.19
2023-03-27T12:36:42.839Z,101018.75
2023-03-27T12:39:09.036Z,101012.78
2023-03-27T12:41:35.210Z,101006.44
2023-03-27T12:44:01.416Z,101012.31
2023-03-27T12:46:27.671Z,101006.22
2023-03-27T12:48:53.879Z,101029.88
2023-03-27T12:51:20.124Z,101029.03
2023-03-27T12:53:46.327Z,101043.09
2023-03-27T12:56:16.168Z,101043.16
2023-03-27T12:58:42.375Z,101059.19
2023-03-27T13:01:08.657Z,101092.94
2023-03-27T13:03:34.897Z,101113.72
2023-03-27T13:06:01.396Z,101136.88
2023-03-27T13:08:27.591Z,101150.28
2023-03-27T13:10:53.706Z,101156.06
2023-03-27T13:13:20.074Z,101125.53
2023-03-27T13:15:46.312Z,101134.84
2023-03-27T13:18:12.554Z,101127.59
2023-03-27T13:20:38.766Z,101134.81
2023-03-27T13:23:04.970Z,101132.56
2023-03-27T13:25:31.108Z,101126.53
2023-03-27T13:27:57.318Z,101118.41
2023-03-27T13:30:23.533Z,101114.69
2023-03-27T13:32:49.790Z,101104.06
2023-03-27T13:35:16.049Z,101098.16
2023-03-27T13:37:42.271Z,101103.34
2023-03-27T13:40:08.517Z,101086.16
2023-03-27T13:42:34.723Z,101091.00
2023-03-27T13:45:00.900Z,101083.88
2023-03-27T13:47:27.164Z,101076.50
2023-03-27T13:49:53.379Z,101084.13
2023-03-27T13:52:19.575Z,101103.88
2023-03-27T13:54:45.794Z,101107.59
2023-03-27T13:57:12.169Z,101107.59
2023-03-27T13:59:38.418Z,101105.91
2023-03-27T14:02:04.734Z,101102.22
2023-03-27T14:04:31.176Z,101092.25
2023-03-27T14:06:57.419Z,101099.03
2023-03-27T14:09:23.612Z,101101.63
2023-03-27T14:11:49.766Z,101128.00
2023-03-27T14:14:15.942Z,101138.91
2023-03-27T14:16:42.167Z,101151.56
2023-03-27T14:19:08.296Z,101163.81
2023-03-27T14:21:38.888Z,101173.81
2023-03-27T14:24:05.353Z,101165.88
2023-03-27T14:26:31.525Z,101150.09
2023-03-27T14:28:57.717Z,101164.00
2023-03-27T14:31:24.000Z,101164.09
2023-03-27T14:33:50.183Z,101167.38
2023-03-27T14:36:16.363Z,101180.84
2023-03-27T14:38:42.553Z,101159.84
2023-03-27T14:41:08.727Z,101156.31
2023-03-27T14:43:34.854Z,101140.22
2023-03-27T14:46:01.219Z,101140.22
2023-03-27T14:48:27.635Z,101126.47
2023-03-27T14:50:53.791Z,101123.38
2023-03-27T14:53:19.991Z,101129.81
2023-03-27T14:55:46.118Z,101143.41
2023-03-27T14:58:12.308Z,101147.72
2023-03-27T15:00:38.437Z,101145.38
2023-03-27T15:03:04.647Z,101145.25
2023-03-27T15:05:30.829Z,101132.13
2023-03-27T15:07:57.050Z,101129.81
2023-03-27T15:10:23.248Z,101131.34
2023-03-27T15:12:49.481Z,101117.94
2023-03-27T15:15:15.687Z,101122.31
2023-03-27T15:17:41.866Z,101109.97
2023-03-27T15:20:08.064Z,101117.00
2023-03-27T15:22:34.345Z,101112.50
2023-03-27T15:25:00.462Z,101108.53
2023-03-27T15:27:26.679Z,101109.34
2023-03-27T15:29:53.045Z,101101.91
2023-03-27T15:32:19.241Z,101115.91
2023-03-27T15:34:45.456Z,101099.84
2023-03-27T15:37:11.624Z,101103.44
2023-03-27T15:39:37.816Z,101105.03
2023-03-27T15:42:04.026Z,101102.16
2023-03-27T15:44:30.161Z,101087.94
2023-03-27T15:46:56.436Z,101105.53
2023-03-27T15:49:22.622Z,101100.53
2023-03-27T15:51:48.763Z,101105.22
2023-03-27T15:54:14.870Z,101104.41
2023-03-27T15:56:41.101Z,101113.19
2023-03-27T15:59:07.314Z,101116.50
2023-03-27T16:01:33.476Z,101125.00
2023-03-27T16:04:00.608Z,101135.34
2023-03-27T16:06:28.679Z,101129.59
2023-03-27T16:08:54.882Z,101131.03
2023-03-27T16:11:21.071Z,101133.69
2023-03-27T16:13:47.237Z,101130.66
2023-03-27T16:16:13.375Z,101145.66
2023-03-27T16:18:39.562Z,101131.84
2023-03-27T16:21:05.733Z,101140.34
2023-03-27T16:23:31.864Z,101138.69
2023-03-27T16:25:58.351Z,101136.28
2023-03-27T16:28:24.747Z,101141.63
2023-03-27T16:30:50.914Z,101144.97
2023-03-27T16:33:17.336Z,101158.03
2023-03-27T16:35:43.740Z,101150.66
2023-03-27T16:38:09.941Z,101161.41
2023-03-27T16:40:36.114Z,101157.47
2023-03-27T16:43:02.296Z,101167.41
2023-03-27T16:45:28.477Z,101173.84
2023-03-27T16:47:54.798Z,101190.03
2023-03-27T16:50:21.051Z,101188.22
2023-03-27T16:52:47.192Z,101195.53
2023-03-27T16:55:13.299Z,101202.13
2023-03-27T16:57:40.238Z,101214.41
2023-03-27T17:00:06.402Z,101217.19
2023-03-27T17:02:34.672Z,101219.00
2023-03-27T17:05:01.386Z,101216.44
2023-03-27T17:07:27.632Z,101227.06
2023-03-27T17:09:53.893Z,101226.06
2023-03-27T17:12:20.098Z,101228.50
2023-03-27T17:14:46.240Z,101236.84
2023-03-27T17:17:12.472Z,101235.00
2023-03-27T17:19:38.633Z,101242.72
2023-03-27T17:22:04.834Z,101247.06
2023-03-27T17:24:31.295Z,101252.31
2023-03-27T17:26:57.448Z,101265.28
2023-03-27T17:29:23.593Z,101264.66
2023-03-27T17:31:49.882Z,101269.19
2023-03-27T17:34:16.157Z,101266.75
2023-03-27T17:36:47.475Z,101268.66
2023-03-27T17:39:18.641Z,101280.84
2023-03-27T17:41:44.803Z,101280.06
2023-03-27T17:44:11.141Z,101290.47
2023-03-27T17:46:37.439Z,101298.34
2023-03-27T17:49:03.652Z,101302.69
2023-03-27T17:51:33.047Z,101299.41
2023-03-27T17:53:59.229Z,101314.09
2023-03-27T17:56:25.439Z,101307.25
2023-03-27T17:58:51.717Z,101325.53
2023-03-27T18:01:17.872Z,101341.25
2023-03-27T18:03:44.152Z,101353.22
2023-03-27T18:06:11.063Z,101361.03
2023-03-27T18:08:37.280Z,101363.81
2023-03-27T18:11:03.486Z,101371.13
2023-03-27T18:13:30.016Z,101378.41
2023-03-27T18:15:56.388Z,101389.00
2023-03-27T18:18:22.706Z,101395.22
2023-03-27T18:20:48.997Z,101381.53
2023-03-27T18:23:15.130Z,101385.03
2023-03-27T18:25:41.285Z,101391.09
2023-03-27T18:28:07.440Z,101398.03
2023-03-27T18:30:33.668Z,101405.84
2023-03-27T18:33:00.343Z,101408.53
2023-03-27T18:35:26.537Z,101391.34
2023-03-27T18:37:53.309Z,101397.34
2023-03-27T18:40:19.516Z,101400.84
2023-03-27T18:42:45.746Z,101393.97
2023-03-27T18:45:12.039Z,101400.09
2023-03-27T18:47:38.218Z,101397.59
2023-03-27T18:50:05.441Z,101398.50
2023-03-27T18:52:31.564Z,101401.84
2023-03-27T18:54:57.692Z,101405.25
2023-03-27T18:57:23.977Z,101407.81
2023-03-27T18:59:50.178Z,101409.59
2023-03-27T19:02:16.384Z,101421.69
2023-03-27T19:04:42.581Z,101418.28
2023-03-27T19:07:08.857Z,101418.38
2023-03-27T19:09:41.272Z,101426.19
2023-03-27T19:12:07.999Z,101432.28
2023-03-27T19:14:34.157Z,101441.91
2023-03-27T19:17:00.365Z,101438.53
2023-03-27T19:19:26.479Z,101443.81
2023-03-27T19:21:52.647Z,101449.94
2023-03-27T19:24:18.860Z,101442.25
2023-03-27T19:26:45.002Z,101449.16
2023-03-27T19:29:11.116Z,101452.63
2023-03-27T19:31:37.367Z,101450.00
2023-03-27T19:34:03.549Z,101456.03
2023-03-27T19:36:30.370Z,101452.66
2023-03-27T19:38:56.517Z,101459.63
2023-03-27T19:41:22.708Z,101457.13
2023-03-27T19:43:48.840Z,101466.63
2023-03-27T19:46:16.647Z,101473.53
2023-03-27T19:48:43.138Z,101475.34
2023-03-27T19:51:09.306Z,101476.19
2023-03-27T19:53:35.496Z,101476.19
2023-03-27T19:56:01.664Z,101483.09
2023-03-27T19:58:27.808Z,101485.69
2023-03-27T20:00:53.982Z,101485.72
2023-03-27T20:03:20.319Z,101485.72
2023-03-27T20:05:46.639Z,101489.19
2023-03-27T20:08:12.803Z,101492.59
2023-03-27T20:10:38.924Z,101496.91
2023-03-27T20:13:07.530Z,101493.47
2023-03-27T20:15:33.764Z,101503.78
2023-03-27T20:18:00.052Z,101496.91
2023-03-27T20:20:26.390Z,101503.81
2023-03-27T20:22:57.607Z,101502.94
2023-03-27T20:25:24.229Z,101508.09
2023-03-27T20:27:50.396Z,101491.75
2023-03-27T20:30:16.596Z,101496.91
2023-03-27T20:32:42.802Z,101509.84
2023-03-27T20:35:20.755Z,101505.53
2023-03-27T20:37:49.513Z,101504.69
2023-03-27T20:40:15.821Z,101505.53
2023-03-27T20:42:42.030Z,101513.28
2023-03-27T20:45:08.186Z,101515.00
2023-03-27T20:47:34.389Z,101514.13
2023-03-27T20:50:00.557Z,101510.69
2023-03-27T20:52:26.683Z,101512.41
2023-03-27T20:54:52.852Z,101518.41
2023-03-27T20:57:19.022Z,101515.84
2023-03-27T20:59:47.441Z,101519.25
2023-03-27T21:02:13.899Z,101517.53
2023-03-27T21:04:40.082Z,101520.97
2023-03-27T21:07:06.249Z,101517.50
2023-03-27T21:09:32.374Z,101534.66
2023-03-27T21:11:58.523Z,101527.81
2023-03-27T21:14:24.681Z,101530.34
2023-03-27T21:16:50.887Z,101532.94
2023-03-27T21:19:17.196Z,101523.50
2023-03-27T21:21:43.436Z,101528.59
2023-03-27T21:24:09.652Z,101529.47
2023-03-27T21:26:35.846Z,101527.72
2023-03-27T21:29:02.016Z,101525.97
2023-03-27T21:31:28.233Z,101527.66
2023-03-27T21:33:54.373Z,101531.09
2023-03-27T21:36:20.567Z,101529.34
2023-03-27T21:38:46.742Z,101539.59
2023-03-27T21:41:12.857Z,101539.59
2023-03-27T21:43:39.047Z,101545.66
2023-03-27T21:46:05.267Z,101552.53
2023-03-27T21:48:31.486Z,101546.56
2023-03-27T21:50:57.652Z,101550.00
2023-03-27T21:53:23.781Z,101543.13
2023-03-27T21:55:49.925Z,101556.03
2023-03-27T21:58:16.048Z,101554.34
2023-03-27T22:00:42.184Z,101555.16
2023-03-27T22:03:08.341Z,101554.34
2023-03-27T22:05:34.487Z,101555.22
2023-03-27T22:08:00.677Z,101561.25
2023-03-27T22:10:26.861Z,101560.44
2023-03-27T22:12:53.059Z,101557.84
2023-03-27T22:15:19.228Z,101570.66
2023-03-27T22:17:45.352Z,101566.34
2023-03-27T22:20:11.576Z,101574.94
2023-03-27T22:22:37.725Z,101579.19
2023-03-27T22:25:03.935Z,101587.72
2023-03-27T22:27:30.109Z,101592.81
2023-03-27T22:29:56.285Z,101596.19
2023-03-27T22:32:22.457Z,101593.53
2023-03-27T22:34:48.594Z,101600.31
2023-03-27T22:37:14.806Z,101601.00
2023-03-27T22:39:41.017Z,101608.66
2023-03-27T22:42:07.130Z,101610.25
2023-03-27T22:44:33.288Z,101618.72
2023-03-27T22:46:59.496Z,101619.50
2023-03-27T22:49:25.638Z,101627.13
2023-03-27T22:51:51.793Z,101627.03
2023-03-27T22:54:17.948Z,101629.53
2023-03-27T22:56:44.106Z,101634.56
2023-03-27T22:59:10.248Z,101643.94
2023-03-27T23:01:36.426Z,101649.06
2023-03-27T23:04:02.722Z,101645.53
2023-03-27T23:06:28.962Z,101650.66
2023-03-27T23:08:55.156Z,101643.63
2023-03-27T23:11:21.354Z,101649.56
2023-03-27T23:13:47.524Z,101658.00
2023-03-27T23:16:13.652Z,101660.50
2023-03-27T23:18:39.848Z,101658.75
2023-03-27T23:21:05.978Z,101664.69
2023-03-27T23:23:32.158Z,101670.53
2023-03-27T23:25:58.772Z,101663.59
2023-03-27T23:28:25.198Z,101661.88
2023-03-27T23:30:51.353Z,101666.00
2023-03-27T23:33:17.489Z,101659.06
2023-03-27T23:35:43.656Z,101659.97
2023-03-27T23:38:09.803Z,101667.56
2023-03-27T23:40:36.004Z,101664.00
2023-03-27T23:43:02.135Z,101675.13
2023-03-27T23:45:28.259Z,101679.25
2023-03-27T23:47:54.502Z,101678.34
2023-03-27T23:50:20.675Z,101679.97
2023-03-27T23:52:46.853Z,101678.19
2023-03-27T23:55:12.982Z,101685.00
2023-03-27T23:57:39.117Z,101679.75
